Aérodrome :
LOGIN :

S'inscrire | Disclaimer

   EN    FR    IT 

 










Légende :    VFR   VFR Marginal   IFR   IFR Intensif   IFR Très Intensif
Visi : 
Plafond : 
>= 8 km
>= 3000ft
5 à 8 km
1000 à 3000 ft
1500m à 5 km
500 à 1000 ft
800 à 1500m
200 à 500 ft
< 800m
< 200 ft
Symboles :   Orages  Brouillard  Fortes neiges  Fortes précipitations  Vent > 20 kt
SIGMETs :   Divers  Orages  Givrage  Turbulence  Onde Orograph.  Cendres Volcan.






- Altitude de l'aérodrome : 147 ft
- Code IATA : DUS


EDDL - Düsseldorf Int.

DERNIER METAR :
  • 231050Z 18006KT 9000 -RA FEW005 SCT008 15/14 Q1011 RERA TEMPO 4000 RA

METARs EXPIRÉS :
  • 231020Z 16003KT 130V210 8000 RA FEW009 SCT013 BKN018 15/14 Q1011 BECMG NSW
  • 230950Z 17004KT 9999 SHRA SCT014TCU 14/13 Q1011 BECMG NSW
  • 230920Z VRB02KT 9999 SHRA FEW010 SCT020TCU 14/13 Q1011 BECMG NSW
  • 230850Z 13004KT 9999 -SHRA FEW010 BKN020TCU 14/13 Q1011 RESHRA TEMPO SHRA
  • 230820Z VRB02KT 9000 SHRA FEW010 SCT022CB 14/13 Q1011 BECMG NSW

TAF TAF EDDL
Valide du 23 à 06h jusqu'au 24 à 12h UTC


230500Z 2306/2412 15004KT 9999 BKN030
PROB30
TEMPO 2306/2314 SHRA BKN015TCU
BECMG 2310/2312 21007KT
BECMG 2321/2324 15005KT
BECMG 2409/2411 19012KT



MET'MAP, la Météo Aéronautique d'un coup d'oeil ! - Copyright ORBIFLY Décembre 2007 - Disclaimer

ORBIFLY MET'MAP TEAM :

Programmation & Développement : Alexandra Zaïnal
Sur une idée originale de : Baudouin d'Aumeries
Assistance à la programmation : Marc-Olivier Méhu
Soutien technique & logistique : Manuel Goepfert

Contact : metmap@orbifly.com




SOURCES & CREDITS :

   NOAA